Time;durP1;ratioP1;P1;durP2;ratioP2;P2;SDS_P1;SDS_P2;PMS_P1;PMS_P2;Temp;Humidity;BMP_temperature;BMP_pressure;BME280_temperature;BME280_humidity;BME280_pressure;Samples;Min_cycle;Max_cycle;Signal;HPM_P1;HPM_P2
2022/08/03 00:00:01;;;;;;;;;;;15.10;99.90;;;;;;5126478;27;19922;-57
2022/08/03 00:02:41;;;;;;;;;;;15.10;99.90;;;;;;5126204;27;19916;-59
2022/08/03 00:05:21;;;;;;;;;;;15.10;99.90;;;;;;5125217;27;19922;-59
2022/08/03 00:08:01;;;;;;;;;;;15.10;99.90;;;;;;5104318;27;20323;-59
2022/08/03 00:10:41;;;;;;;;;;;14.90;99.90;;;;;;5126044;27;20296;-58
2022/08/03 00:13:20;;;;;;;;;;;14.90;99.90;;;;;;5125437;27;20446;-57
2022/08/03 00:16:00;;;;;;;;;;;14.80;99.90;;;;;;5104301;27;19958;-58
2022/08/03 00:18:40;;;;;;;;;;;14.80;99.90;;;;;;5125527;27;19918;-58
2022/08/03 00:21:20;;;;;;;;;;;14.70;99.90;;;;;;5126289;27;20103;-59
2022/08/03 00:24:00;;;;;;;;;;;14.70;99.90;;;;;;5125681;27;19912;-58
2022/08/03 00:26:40;;;;;;;;;;;14.70;99.90;;;;;;5099079;27;19912;-58
2022/08/03 00:29:19;;;;;;;;;;;14.70;99.90;;;;;;5104769;27;19927;-59
2022/08/03 00:31:59;;;;;;;;;;;14.70;99.90;;;;;;5125848;27;19912;-59
2022/08/03 00:34:39;;;;;;;;;;;14.60;99.90;;;;;;5125625;27;19918;-59
2022/08/03 00:37:19;;;;;;;;;;;14.60;99.90;;;;;;5125082;27;20128;-58
2022/08/03 00:39:59;;;;;;;;;;;14.50;99.90;;;;;;5125994;27;20315;-59
2022/08/03 00:42:47;;;;;;;;;;;14.50;99.90;;;;;;5125650;27;20420;-58
2022/08/03 00:45:29;;;;;;;;;;;14.50;99.90;;;;;;5105165;27;19953;-58
2022/08/03 00:48:11;;;;;;;;;;;14.50;99.90;;;;;;5124937;27;20395;-58
2022/08/03 00:50:51;;;;;;;;;;;14.40;99.90;;;;;;5125741;27;19918;-58
2022/08/03 00:53:31;;;;;;;;;;;14.30;99.90;;;;;;5125150;27;19926;-59
2022/08/03 00:56:12;;;;;;;;;;;14.30;99.90;;;;;;5123388;27;20281;-58
2022/08/03 00:58:53;;;;;;;;;;;14.30;99.90;;;;;;5104870;27;19953;-58
2022/08/03 01:01:33;;;;;;;;;;;14.30;99.90;;;;;;5125764;27;19911;-59
2022/08/03 01:04:13;;;;;;;;;;;14.30;99.90;;;;;;5126120;27;19912;-58
2022/08/03 01:07:12;;;;;;;;;;;14.30;99.90;;;;;;5095339;27;20373;-55
2022/08/03 01:09:57;;;;;;;;;;;14.20;99.90;;;;;;5084941;28;19913;-58
2022/08/03 01:12:38;;;;;;;;;;;14.20;99.90;;;;;;5105136;27;19912;-59
2022/08/03 01:15:21;;;;;;;;;;;14.10;99.90;;;;;;5125312;27;19918;-56
2022/08/03 01:18:04;;;;;;;;;;;14.10;99.90;;;;;;5117995;27;20403;-58
2022/08/03 01:20:46;;;;;;;;;;;14.10;99.90;;;;;;5104793;27;19920;-58
2022/08/03 01:23:35;;;;;;;;;;;14.10;99.90;;;;;;5125394;27;19915;-58
2022/08/03 01:26:27;;;;;;;;;;;14.10;99.90;;;;;;5102040;27;19926;-58
2022/08/03 01:29:21;;;;;;;;;;;14.10;99.90;;;;;;5125395;27;20407;-58
2022/08/03 01:32:03;;;;;;;;;;;14.10;99.90;;;;;;5105007;27;19921;-56
2022/08/03 01:34:43;;;;;;;;;;;14.00;99.90;;;;;;5105165;27;20506;-58
2022/08/03 01:37:26;;;;;;;;;;;14.00;99.90;;;;;;5113310;27;19918;-58
2022/08/03 01:40:08;;;;;;;;;;;14.00;99.90;;;;;;5125763;27;20397;-59
2022/08/03 01:42:49;;;;;;;;;;;14.00;99.90;;;;;;5125697;27;19945;-59
2022/08/03 01:45:30;;;;;;;;;;;14.00;99.90;;;;;;5125029;27;19912;-58
2022/08/03 01:48:10;;;;;;;;;;;13.90;99.90;;;;;;5100995;27;19973;-58
2022/08/03 01:50:51;;;;;;;;;;;13.80;99.90;;;;;;5125792;27;19919;-58
2022/08/03 01:53:33;;;;;;;;;;;13.80;99.90;;;;;;5125428;27;19937;-58
2022/08/03 01:56:16;;;;;;;;;;;13.80;99.90;;;;;;5102875;27;19927;-59
2022/08/03 01:58:58;;;;;;;;;;;13.70;99.90;;;;;;5125845;27;19912;-58
2022/08/03 02:01:38;;;;;;;;;;;13.70;99.90;;;;;;5125627;27;19942;-57
2022/08/03 02:04:18;;;;;;;;;;;13.70;99.90;;;;;;5125411;27;20308;-59
2022/08/03 02:06:59;;;;;;;;;;;13.70;99.90;;;;;;5124522;27;20288;-57
2022/08/03 02:09:40;;;;;;;;;;;13.70;99.90;;;;;;5125799;27;19922;-58
2022/08/03 02:12:22;;;;;;;;;;;13.70;99.90;;;;;;5125598;27;19942;-58
2022/08/03 02:15:02;;;;;;;;;;;13.60;99.90;;;;;;5104871;27;20319;-59
2022/08/03 02:17:43;;;;;;;;;;;13.70;99.90;;;;;;5120963;27;19934;-58
2022/08/03 02:20:24;;;;;;;;;;;13.70;99.90;;;;;;5146389;27;19911;-58
2022/08/03 02:23:06;;;;;;;;;;;13.70;99.90;;;;;;5125426;27;20567;-58
2022/08/03 02:25:48;;;;;;;;;;;13.60;99.90;;;;;;5125142;27;19912;-58
2022/08/03 02:28:30;;;;;;;;;;;13.50;99.90;;;;;;5125752;27;19911;-59
2022/08/03 02:31:12;;;;;;;;;;;13.40;99.90;;;;;;5126018;27;20387;-59
2022/08/03 02:33:54;;;;;;;;;;;13.40;99.90;;;;;;5126131;27;19912;-59
2022/08/03 02:36:35;;;;;;;;;;;13.40;99.90;;;;;;5120593;27;19913;-58
2022/08/03 02:39:17;;;;;;;;;;;13.30;99.90;;;;;;5104809;27;19953;-58
2022/08/03 02:42:01;;;;;;;;;;;13.30;99.90;;;;;;5126446;27;19912;-59
2022/08/03 02:44:46;;;;;;;;;;;13.30;99.90;;;;;;5126133;27;19922;-57
2022/08/03 02:47:27;;;;;;;;;;;13.20;99.90;;;;;;5112339;27;19946;-58
2022/08/03 02:50:09;;;;;;;;;;;13.10;99.90;;;;;;5125720;27;19912;-59
2022/08/03 02:52:49;;;;;;;;;;;13.10;99.90;;;;;;5105354;27;19926;-58
2022/08/03 02:55:31;;;;;;;;;;;13.10;99.90;;;;;;5125729;27;19918;-58
2022/08/03 02:58:14;;;;;;;;;;;13.10;99.90;;;;;;5124927;27;19916;-56
2022/08/03 03:00:55;;;;;;;;;;;13.10;99.90;;;;;;5124194;27;20377;-59
2022/08/03 03:03:37;;;;;;;;;;;13.10;99.90;;;;;;5146671;27;19911;-58
2022/08/03 03:06:19;;;;;;;;;;;13.10;99.90;;;;;;5124662;27;19918;-59
2022/08/03 03:09:01;;;;;;;;;;;13.10;99.90;;;;;;5084458;28;19917;-57
2022/08/03 03:11:42;;;;;;;;;;;13.10;99.90;;;;;;5126407;27;19918;-57
2022/08/03 03:14:22;;;;;;;;;;;13.10;99.90;;;;;;5125484;27;19912;-59
2022/08/03 03:17:02;;;;;;;;;;;13.10;99.90;;;;;;5114418;27;20312;-58
2022/08/03 03:19:44;;;;;;;;;;;13.00;99.90;;;;;;5125755;27;19918;-58
2022/08/03 03:22:25;;;;;;;;;;;13.00;99.90;;;;;;5124979;27;20407;-58
2022/08/03 03:25:05;;;;;;;;;;;13.00;99.90;;;;;;5104946;27;19912;-56
2022/08/03 03:27:47;;;;;;;;;;;13.00;99.90;;;;;;5123706;27;19912;-59
2022/08/03 03:30:27;;;;;;;;;;;13.00;99.90;;;;;;5125820;27;19918;-60
2022/08/03 03:33:07;;;;;;;;;;;13.00;99.90;;;;;;5105043;27;19953;-59
2022/08/03 03:35:47;;;;;;;;;;;13.00;99.90;;;;;;5104462;27;19941;-57
2022/08/03 03:38:26;;;;;;;;;;;13.00;99.90;;;;;;5104325;27;20381;-56
2022/08/03 03:41:06;;;;;;;;;;;13.00;99.90;;;;;;5125715;27;20403;-59
2022/08/03 03:43:46;;;;;;;;;;;13.00;99.90;;;;;;5125665;27;19912;-59
2022/08/03 03:46:26;;;;;;;;;;;13.00;99.90;;;;;;5104125;27;19915;-59
2022/08/03 03:49:07;;;;;;;;;;;13.00;99.90;;;;;;5125361;27;19918;-58
2022/08/03 03:51:47;;;;;;;;;;;13.00;99.90;;;;;;5125335;27;20299;-59
2022/08/03 03:54:27;;;;;;;;;;;13.00;99.90;;;;;;5104977;27;19926;-59
2022/08/03 03:57:07;;;;;;;;;;;13.00;99.90;;;;;;5115284;27;19918;-58
2022/08/03 03:59:47;;;;;;;;;;;13.10;99.90;;;;;;5125215;27;19918;-58
2022/08/03 04:02:28;;;;;;;;;;;13.10;99.90;;;;;;5125147;27;19912;-59
2022/08/03 04:11:09;;;;;;;;;;;13.30;99.90;;;;;;5125539;27;19915;-58
2022/08/03 04:13:51;;;;;;;;;;;13.30;99.90;;;;;;5126047;27;20061;-59
2022/08/03 04:16:33;;;;;;;;;;;13.30;99.90;;;;;;5124721;27;20278;-60
2022/08/03 04:19:17;;;;;;;;;;;13.40;99.90;;;;;;5125306;27;19918;-59
2022/08/03 04:21:59;;;;;;;;;;;13.50;99.90;;;;;;5084541;28;19916;-58
2022/08/03 04:24:42;;;;;;;;;;;13.60;99.90;;;;;;5085373;28;19912;-59
2022/08/03 04:27:24;;;;;;;;;;;13.70;99.90;;;;;;5093526;27;19913;-60
2022/08/03 04:30:05;;;;;;;;;;;13.80;99.90;;;;;;5105184;27;19945;-59
2022/08/03 04:32:50;;;;;;;;;;;14.00;99.90;;;;;;5085042;28;19926;-60
2022/08/03 04:35:32;;;;;;;;;;;14.20;99.90;;;;;;5104675;27;19912;-58
2022/08/03 04:38:14;;;;;;;;;;;14.30;99.90;;;;;;5083897;28;19912;-59
2022/08/03 04:40:55;;;;;;;;;;;14.40;99.90;;;;;;5105600;27;20407;-59
2022/08/03 04:43:38;;;;;;;;;;;14.60;99.90;;;;;;5105439;27;19912;-59
2022/08/03 04:46:22;;;;;;;;;;;14.70;99.90;;;;;;5122220;27;19911;-59
2022/08/03 04:49:02;;;;;;;;;;;14.90;99.90;;;;;;5104963;27;19926;-58
2022/08/03 04:51:42;;;;;;;;;;;15.00;99.90;;;;;;5105317;27;19913;-58
2022/08/03 04:54:22;;;;;;;;;;;15.20;99.90;;;;;;5104837;27;19927;-56
2022/08/03 04:57:01;;;;;;;;;;;15.60;99.90;;;;;;5096159;27;20483;-56
2022/08/03 04:59:41;;;;;;;;;;;16.60;99.90;;;;;;5125938;27;20521;-58
2022/08/03 05:02:21;;;;;;;;;;;17.70;99.90;;;;;;5125816;27;19918;-55
2022/08/03 05:05:01;;;;;;;;;;;18.70;99.90;;;;;;5084821;28;19916;-56
2022/08/03 05:07:41;;;;;;;;;;;19.40;99.90;;;;;;5124191;27;19922;-57
2022/08/03 05:10:21;;;;;;;;;;;19.90;99.90;;;;;;5115662;27;19949;-57
2022/08/03 05:13:00;;;;;;;;;;;20.20;99.90;;;;;;5105256;27;20442;-56
2022/08/03 05:15:40;;;;;;;;;;;20.50;99.90;;;;;;5105005;27;19915;-57
2022/08/03 05:18:20;;;;;;;;;;;20.90;99.90;;;;;;5125328;27;19916;-58
2022/08/03 05:21:00;;;;;;;;;;;21.10;99.90;;;;;;5125431;27;19922;-57
2022/08/03 05:23:40;;;;;;;;;;;21.10;99.90;;;;;;5118453;27;19916;-56
2022/08/03 05:26:20;;;;;;;;;;;21.00;99.90;;;;;;5111674;27;19953;-58
2022/08/03 05:28:59;;;;;;;;;;;20.50;99.90;;;;;;5124499;27;20504;-57
2022/08/03 05:31:40;;;;;;;;;;;20.00;99.90;;;;;;5105620;27;19926;-58
2022/08/03 05:34:38;;;;;;;;;;;19.90;99.90;;;;;;5125960;27;20516;-58
2022/08/03 05:37:18;;;;;;;;;;;19.70;99.90;;;;;;5113719;27;20284;-55
2022/08/03 05:39:58;;;;;;;;;;;19.60;99.90;;;;;;5126083;27;19918;-59
2022/08/03 05:42:38;;;;;;;;;;;19.50;99.90;;;;;;5085037;28;19912;-58
2022/08/03 05:45:18;;;;;;;;;;;19.60;99.90;;;;;;5125288;27;19915;-56
2022/08/03 05:47:57;;;;;;;;;;;19.60;99.90;;;;;;5103946;27;19916;-58
2022/08/03 05:50:37;;;;;;;;;;;19.70;99.90;;;;;;5105052;27;20335;-58
2022/08/03 05:53:17;;;;;;;;;;;19.90;99.90;;;;;;5125434;27;20530;-58
2022/08/03 05:55:57;;;;;;;;;;;20.00;99.90;;;;;;5124913;27;19918;-56
2022/08/03 05:58:37;;;;;;;;;;;20.10;99.90;;;;;;5125421;27;19915;-59
2022/08/03 06:01:17;;;;;;;;;;;20.20;99.90;;;;;;5105442;27;19946;-56
2022/08/03 06:03:56;;;;;;;;;;;20.40;99.90;;;;;;5126140;27;19916;-59
2022/08/03 06:06:36;;;;;;;;;;;20.50;99.90;;;;;;5120182;27;19942;-56
2022/08/03 06:09:16;;;;;;;;;;;20.50;99.90;;;;;;5125148;27;19912;-58
2022/08/03 06:11:56;;;;;;;;;;;20.60;99.90;;;;;;5126183;27;19911;-58
2022/08/03 06:14:36;;;;;;;;;;;20.60;99.90;;;;;;5104995;27;19962;-58
2022/08/03 06:17:15;;;;;;;;;;;20.50;99.90;;;;;;5093669;27;19913;-58
2022/08/03 06:19:55;;;;;;;;;;;20.60;99.90;;;;;;5125950;27;19918;-58
2022/08/03 06:22:35;;;;;;;;;;;20.80;99.90;;;;;;5125343;27;20384;-58
2022/08/03 06:25:15;;;;;;;;;;;21.00;99.90;;;;;;5104692;27;19930;-58
2022/08/03 06:27:55;;;;;;;;;;;21.20;99.90;;;;;;5123578;27;20072;-58
2022/08/03 06:30:35;;;;;;;;;;;21.30;99.90;;;;;;5104939;27;19949;-57
2022/08/03 06:33:15;;;;;;;;;;;21.40;99.90;;;;;;5125428;27;19915;-58
2022/08/03 06:35:56;;;;;;;;;;;21.50;99.90;;;;;;5124668;27;20376;-56
2022/08/03 06:38:36;;;;;;;;;;;21.60;99.90;;;;;;5104832;27;19926;-58
2022/08/03 06:41:16;;;;;;;;;;;21.80;99.90;;;;;;5124739;27;19922;-59
2022/08/03 06:43:55;;;;;;;;;;;21.90;99.90;;;;;;5124405;27;19922;-58
2022/08/03 06:46:35;;;;;;;;;;;22.00;99.90;;;;;;5104085;27;20426;-58
2022/08/03 06:49:15;;;;;;;;;;;22.10;99.90;;;;;;5125075;27;20350;-58
2022/08/03 06:51:56;;;;;;;;;;;22.30;99.90;;;;;;5125601;27;19912;-57
2022/08/03 06:54:36;;;;;;;;;;;22.40;99.90;;;;;;5125488;27;19920;-58
2022/08/03 06:57:17;;;;;;;;;;;22.60;99.90;;;;;;5123475;27;19938;-58
2022/08/03 07:00:00;;;;;;;;;;;22.80;99.90;;;;;;5106058;27;20126;-58
2022/08/03 07:02:41;;;;;;;;;;;22.90;99.90;;;;;;5122146;27;19924;-58
2022/08/03 07:05:21;;;;;;;;;;;23.10;99.90;;;;;;5086979;27;19920;-58
2022/08/03 07:08:02;;;;;;;;;;;23.30;99.90;;;;;;5120426;27;20383;-59
2022/08/03 07:10:42;;;;;;;;;;;23.60;99.90;;;;;;5124236;27;19918;-59
2022/08/03 07:13:21;;;;;;;;;;;23.70;99.90;;;;;;5128057;27;19918;-58
2022/08/03 07:16:01;;;;;;;;;;;24.00;99.90;;;;;;5124231;27;20253;-58
2022/08/03 07:18:41;;;;;;;;;;;24.20;99.90;;;;;;5124624;27;19912;-58
2022/08/03 07:21:21;;;;;;;;;;;24.30;99.90;;;;;;5123772;27;20392;-58
2022/08/03 07:24:01;;;;;;;;;;;24.50;99.90;;;;;;5123067;27;19919;-58
2022/08/03 07:26:41;;;;;;;;;;;24.50;99.90;;;;;;5121843;27;19923;-59
2022/08/03 07:29:21;;;;;;;;;;;24.60;99.90;;;;;;5104383;27;20071;-59
2022/08/03 07:32:00;;;;;;;;;;;24.70;99.90;;;;;;5124142;27;19920;-58
2022/08/03 07:34:40;;;;;;;;;;;24.80;99.90;;;;;;5124359;27;20300;-57
2022/08/03 07:37:20;;;;;;;;;;;25.00;99.90;;;;;;5121916;27;20021;-59
2022/08/03 07:40:00;;;;;;;;;;;25.00;99.90;;;;;;5124275;27;19924;-59
2022/08/03 07:42:40;;;;;;;;;;;25.10;99.90;;;;;;5103917;27;19946;-58
2022/08/03 07:45:20;;;;;;;;;;;25.10;99.90;;;;;;5104733;27;19920;-58
2022/08/03 07:47:59;;;;;;;;;;;25.20;99.90;;;;;;5104269;27;20323;-59
2022/08/03 07:50:39;;;;;;;;;;;25.30;99.90;;;;;;5125691;27;20300;-58
2022/08/03 07:53:19;;;;;;;;;;;25.50;99.90;;;;;;5124211;27;19916;-58
2022/08/03 07:55:59;;;;;;;;;;;25.70;99.90;;;;;;5123238;27;19922;-59
2022/08/03 07:58:39;;;;;;;;;;;25.70;99.90;;;;;;5125124;27;19925;-59
2022/08/03 08:01:18;;;;;;;;;;;25.80;99.90;;;;;;5104277;27;19969;-58
2022/08/03 08:03:58;;;;;;;;;;;25.80;99.90;;;;;;5126259;27;19915;-59
2022/08/03 08:06:38;;;;;;;;;;;25.90;99.90;;;;;;5124374;27;20393;-58
2022/08/03 08:09:18;;;;;;;;;;;26.00;99.90;;;;;;5125134;27;19916;-58
2022/08/03 08:11:58;;;;;;;;;;;26.10;99.90;;;;;;5125422;27;19922;-59
2022/08/03 08:14:38;;;;;;;;;;;26.20;99.90;;;;;;5105458;27;19954;-59
2022/08/03 08:17:18;;;;;;;;;;;26.30;99.90;;;;;;5114063;27;19912;-58
2022/08/03 08:19:59;;;;;;;;;;;26.30;99.90;;;;;;5105478;27;19926;-57
2022/08/03 08:22:39;;;;;;;;;;;26.50;99.90;;;;;;5126181;27;19918;-59
2022/08/03 08:25:20;;;;;;;;;;;26.60;99.90;;;;;;5125746;27;20388;-58
2022/08/03 08:28:02;;;;;;;;;;;26.70;99.90;;;;;;5096851;27;19912;-58
2022/08/03 08:30:43;;;;;;;;;;;26.80;99.90;;;;;;5098218;27;19926;-59
2022/08/03 08:33:23;;;;;;;;;;;26.80;99.90;;;;;;5082490;28;19913;-58
2022/08/03 08:36:03;;;;;;;;;;;26.90;99.00;;;;;;5125143;27;19918;-55
2022/08/03 08:38:43;;;;;;;;;;;26.90;99.10;;;;;;5119638;27;19912;-58
2022/08/03 08:41:24;;;;;;;;;;;27.00;99.90;;;;;;5126342;27;20402;-58
2022/08/03 08:44:06;;;;;;;;;;;26.90;99.20;;;;;;5126404;27;19920;-58
2022/08/03 08:46:47;;;;;;;;;;;27.00;98.90;;;;;;5123974;27;19925;-59
2022/08/03 08:49:27;;;;;;;;;;;27.10;95.20;;;;;;5106275;27;19912;-58
2022/08/03 08:52:08;;;;;;;;;;;27.30;98.00;;;;;;5126195;27;20524;-59
2022/08/03 08:54:50;;;;;;;;;;;27.40;96.60;;;;;;5105385;27;19946;-58
2022/08/03 08:57:32;;;;;;;;;;;27.50;94.50;;;;;;5123891;27;19912;-58
2022/08/03 09:00:13;;;;;;;;;;;27.60;92.20;;;;;;5104535;27;19961;-59
2022/08/03 09:02:54;;;;;;;;;;;27.70;91.80;;;;;;5125688;27;19918;-59
2022/08/03 09:05:34;;;;;;;;;;;27.70;88.50;;;;;;5123823;27;19919;-59
2022/08/03 09:08:14;;;;;;;;;;;27.70;87.50;;;;;;5125482;27;19915;-58
2022/08/03 09:10:53;;;;;;;;;;;27.60;90.50;;;;;;5100759;27;19940;-57
2022/08/03 09:13:34;;;;;;;;;;;27.80;89.70;;;;;;5121560;27;20361;-58
2022/08/03 09:16:15;;;;;;;;;;;28.00;81.40;;;;;;5122707;27;19918;-58
2022/08/03 09:19:11;;;;;;;;;;;28.10;76.70;;;;;;5094139;27;19930;-60
2022/08/03 09:22:06;;;;;;;;;;;28.20;72.80;;;;;;5085094;28;20416;-58
2022/08/03 09:24:58;;;;;;;;;;;28.20;69.40;;;;;;5104756;27;20331;-59
2022/08/03 09:27:43;;;;;;;;;;;28.40;67.00;;;;;;5142935;27;19911;-57
2022/08/03 09:30:23;;;;;;;;;;;28.50;62.50;;;;;;5123544;27;19934;-57
2022/08/03 09:33:04;;;;;;;;;;;28.70;64.90;;;;;;5121993;27;19912;-58
2022/08/03 09:35:45;;;;;;;;;;;28.90;58.90;;;;;;5124082;27;19916;-58
2022/08/03 09:38:26;;;;;;;;;;;28.90;59.00;;;;;;5119607;27;19916;-56
2022/08/03 09:41:17;;;;;;;;;;;29.00;55.70;;;;;;5105345;27;19916;-58
2022/08/03 09:43:57;;;;;;;;;;;29.10;54.80;;;;;;5140069;27;19926;-58
2022/08/03 09:46:49;;;;;;;;;;;29.00;56.10;;;;;;5124839;27;19922;-58
2022/08/03 09:49:29;;;;;;;;;;;29.00;54.70;;;;;;5125633;27;19912;-58
2022/08/03 09:52:17;;;;;;;;;;;29.10;52.90;;;;;;5146461;27;19911;-58
2022/08/03 09:54:57;;;;;;;;;;;29.10;51.20;;;;;;5125132;27;19916;-58
2022/08/03 09:57:37;;;;;;;;;;;29.30;53.40;;;;;;5092135;27;20362;-57
2022/08/03 10:00:17;;;;;;;;;;;29.40;50.80;;;;;;5124934;27;19912;-58
2022/08/03 10:03:03;;;;;;;;;;;29.40;49.80;;;;;;5125435;27;19915;-58
2022/08/03 10:05:44;;;;;;;;;;;29.40;48.90;;;;;;5123361;27;19922;-57
2022/08/03 10:08:24;;;;;;;;;;;29.60;51.70;;;;;;5125149;27;19918;-57
2022/08/03 10:11:04;;;;;;;;;;;29.70;51.40;;;;;;5125634;27;19915;-57
2022/08/03 10:13:44;;;;;;;;;;;29.50;49.20;;;;;;5125676;27;19918;-57
2022/08/03 10:16:24;;;;;;;;;;;29.20;48.80;;;;;;5124453;27;20459;-57
2022/08/03 10:19:04;;;;;;;;;;;29.20;49.90;;;;;;5105068;27;19926;-58
2022/08/03 10:21:50;;;;;;;;;;;29.20;49.40;;;;;;5125568;27;19933;-58
2022/08/03 10:24:34;;;;;;;;;;;29.40;50.10;;;;;;5125773;27;19912;-58
2022/08/03 10:27:14;;;;;;;;;;;29.70;50.30;;;;;;5123183;27;19912;-57
2022/08/03 10:29:55;;;;;;;;;;;29.90;50.30;;;;;;5126444;27;20157;-57
2022/08/03 10:32:38;;;;;;;;;;;30.00;46.80;;;;;;5125375;27;20395;-57
2022/08/03 10:35:20;;;;;;;;;;;30.00;48.00;;;;;;5109597;27;20348;-58
2022/08/03 10:38:01;;;;;;;;;;;30.00;46.50;;;;;;5078335;27;20256;-58
2022/08/03 10:40:41;;;;;;;;;;;30.00;46.10;;;;;;5105142;27;20762;-58
2022/08/03 10:43:22;;;;;;;;;;;30.00;46.80;;;;;;5123181;27;19926;-58
2022/08/03 10:46:03;;;;;;;;;;;30.10;46.20;;;;;;5123552;27;20320;-56
2022/08/03 10:48:44;;;;;;;;;;;30.30;46.90;;;;;;5124865;27;19918;-57
2022/08/03 10:51:24;;;;;;;;;;;30.40;44.30;;;;;;5123922;27;20246;-57
2022/08/03 10:54:04;;;;;;;;;;;30.40;42.10;;;;;;5122923;27;19915;-58
2022/08/03 11:00:02;;;;;;;;;;;30.30;41.90;;;;;;5102451;27;20340;-58
2022/08/03 11:02:58;;;;;;;;;;;30.10;44.40;;;;;;5123476;27;19911;-58
2022/08/03 11:05:40;;;;;;;;;;;30.10;45.40;;;;;;5130757;27;19916;-58
2022/08/03 11:08:25;;;;;;;;;;;30.10;44.30;;;;;;5094059;27;19950;-58
2022/08/03 11:11:18;;;;;;;;;;;30.10;44.60;;;;;;5104083;27;19912;-58
2022/08/03 11:14:02;;;;;;;;;;;30.20;42.90;;;;;;5082263;28;20267;-58
2022/08/03 11:16:44;;;;;;;;;;;30.40;44.50;;;;;;5115461;27;19934;-58
2022/08/03 11:19:42;;;;;;;;;;;30.50;41.80;;;;;;5121520;27;19911;-58
2022/08/03 11:22:23;;;;;;;;;;;30.50;41.20;;;;;;5142334;27;20117;-58
2022/08/03 11:25:04;;;;;;;;;;;30.60;43.10;;;;;;5121608;27;19918;-58
2022/08/03 11:27:44;;;;;;;;;;;30.70;40.20;;;;;;5107200;27;19912;-58
2022/08/03 11:30:27;;;;;;;;;;;30.70;40.20;;;;;;5098847;27;19927;-58
2022/08/03 11:33:08;;;;;;;;;;;30.70;39.80;;;;;;5122902;27;19911;-58
2022/08/03 11:35:59;;;;;;;;;;;30.70;41.20;;;;;;5118712;27;19937;-58
2022/08/03 11:39:04;;;;;;;;;;;30.90;40.70;;;;;;5118915;27;20241;-57
2022/08/03 11:41:45;;;;;;;;;;;30.90;41.50;;;;;;5102185;27;19912;-58
2022/08/03 11:44:43;;;;;;;;;;;31.00;42.50;;;;;;5122575;27;19915;-58
2022/08/03 11:47:25;;;;;;;;;;;31.00;40.70;;;;;;5098800;27;19927;-58
2022/08/03 11:50:05;;;;;;;;;;;31.10;42.30;;;;;;5102428;27;20431;-58
2022/08/03 11:52:45;;;;;;;;;;;31.20;41.80;;;;;;5122486;27;20368;-58
2022/08/03 11:55:25;;;;;;;;;;;31.40;41.10;;;;;;5101719;27;19913;-58
2022/08/03 11:58:06;;;;;;;;;;;31.40;39.50;;;;;;5084733;27;20329;-58
2022/08/03 12:00:46;;;;;;;;;;;31.50;42.70;;;;;;5143406;27;19942;-58
2022/08/03 12:03:31;;;;;;;;;;;31.60;38.70;;;;;;5123358;27;20403;-58
2022/08/03 12:06:13;;;;;;;;;;;31.60;40.80;;;;;;5122285;27;19919;-58
2022/08/03 12:08:53;;;;;;;;;;;31.60;40.20;;;;;;5122133;27;19933;-58
2022/08/03 12:11:33;;;;;;;;;;;31.60;41.50;;;;;;5113724;27;19924;-58
2022/08/03 12:14:17;;;;;;;;;;;31.60;40.90;;;;;;5109296;27;19916;-58
2022/08/03 12:16:57;;;;;;;;;;;31.60;39.10;;;;;;5094857;27;20378;-58
2022/08/03 12:19:43;;;;;;;;;;;31.70;38.90;;;;;;5112331;27;19922;-58
2022/08/03 12:22:32;;;;;;;;;;;31.40;37.80;;;;;;5124619;27;19922;-58
2022/08/03 12:25:20;;;;;;;;;;;31.30;38.50;;;;;;5124762;27;19934;-58
2022/08/03 12:28:08;;;;;;;;;;;31.30;38.50;;;;;;5124829;27;20306;-58
2022/08/03 12:30:50;;;;;;;;;;;31.50;39.80;;;;;;5125794;27;19912;-58
2022/08/03 12:33:30;;;;;;;;;;;31.70;38.50;;;;;;5126204;27;20020;-58
2022/08/03 12:36:10;;;;;;;;;;;31.90;39.30;;;;;;5124246;27;19911;-58
2022/08/03 12:38:55;;;;;;;;;;;32.10;39.60;;;;;;5125573;27;19926;-58
2022/08/03 12:41:37;;;;;;;;;;;32.10;39.40;;;;;;5125328;27;20283;-58
2022/08/03 12:44:17;;;;;;;;;;;32.30;39.00;;;;;;5125851;27;19926;-58
2022/08/03 12:47:10;;;;;;;;;;;32.50;39.60;;;;;;5094844;27;20161;-58
2022/08/03 12:49:51;;;;;;;;;;;32.50;37.40;;;;;;5125916;27;20426;-59
2022/08/03 12:52:42;;;;;;;;;;;32.60;38.80;;;;;;5125902;27;19922;-58
2022/08/03 12:55:24;;;;;;;;;;;32.80;36.90;;;;;;5125738;27;19912;-58
2022/08/03 12:58:05;;;;;;;;;;;32.70;37.50;;;;;;5125331;27;20369;-58
2022/08/03 13:00:56;;;;;;;;;;;32.50;35.70;;;;;;5126104;27;19977;-58
2022/08/03 13:03:40;;;;;;;;;;;32.50;36.10;;;;;;5125911;27;20373;-58
2022/08/03 13:06:21;;;;;;;;;;;32.50;35.50;;;;;;5101909;27;19926;-58
2022/08/03 13:09:06;;;;;;;;;;;32.70;35.00;;;;;;5125429;27;19915;-58
2022/08/03 13:11:46;;;;;;;;;;;32.70;34.90;;;;;;5104972;27;19926;-58
2022/08/03 13:14:26;;;;;;;;;;;32.70;35.30;;;;;;5105428;27;19926;-58
2022/08/03 13:17:06;;;;;;;;;;;32.60;35.00;;;;;;5095574;27;19954;-57
2022/08/03 13:19:47;;;;;;;;;;;32.20;35.80;;;;;;5119292;27;19919;-57
2022/08/03 13:22:29;;;;;;;;;;;31.80;38.20;;;;;;5104908;27;19916;-58
2022/08/03 13:25:08;;;;;;;;;;;31.70;38.40;;;;;;5125059;27;19922;-58
2022/08/03 13:27:48;;;;;;;;;;;31.80;37.60;;;;;;5123954;27;20300;-58
2022/08/03 13:30:28;;;;;;;;;;;32.20;36.00;;;;;;5124885;27;19926;-57
2022/08/03 13:33:08;;;;;;;;;;;32.80;34.70;;;;;;5125485;27;19937;-58
2022/08/03 13:35:47;;;;;;;;;;;33.20;35.70;;;;;;5123845;27;19916;-58
2022/08/03 13:38:27;;;;;;;;;;;33.50;37.20;;;;;;5123322;27;19911;-57
2022/08/03 13:41:07;;;;;;;;;;;33.70;34.10;;;;;;5126029;27;20312;-56
2022/08/03 13:43:47;;;;;;;;;;;33.70;31.90;;;;;;5121960;27;19926;-58
2022/08/03 13:46:27;;;;;;;;;;;33.70;31.20;;;;;;5121586;27;19918;-58
2022/08/03 13:49:07;;;;;;;;;;;33.80;34.20;;;;;;5125240;27;19926;-57
2022/08/03 13:51:46;;;;;;;;;;;34.10;34.30;;;;;;5125039;27;19929;-57
2022/08/03 13:54:26;;;;;;;;;;;34.30;34.00;;;;;;5125358;27;19949;-57
2022/08/03 13:57:06;;;;;;;;;;;34.40;33.80;;;;;;5115338;27;19962;-57
2022/08/03 13:59:46;;;;;;;;;;;34.40;33.70;;;;;;5123770;27;19916;-58
2022/08/03 14:02:26;;;;;;;;;;;34.40;34.00;;;;;;5125194;27;19918;-57
2022/08/03 14:05:06;;;;;;;;;;;34.30;31.70;;;;;;5124209;27;19911;-57
2022/08/03 14:07:48;;;;;;;;;;;34.20;34.00;;;;;;5124096;27;20287;-55
2022/08/03 14:10:28;;;;;;;;;;;34.30;30.90;;;;;;5125806;27;19916;-57
2022/08/03 14:13:10;;;;;;;;;;;34.20;32.10;;;;;;5125728;27;19916;-58
2022/08/03 14:15:50;;;;;;;;;;;34.20;33.50;;;;;;5124809;27;19912;-57
2022/08/03 14:18:31;;;;;;;;;;;34.50;33.80;;;;;;5111441;27;19912;-56
2022/08/03 14:21:12;;;;;;;;;;;34.40;34.10;;;;;;5121513;27;20514;-54
2022/08/03 14:23:52;;;;;;;;;;;34.00;32.20;;;;;;5113532;27;19911;-56
2022/08/03 14:26:32;;;;;;;;;;;33.60;33.30;;;;;;5117768;27;19912;-56
2022/08/03 14:29:12;;;;;;;;;;;33.40;33.20;;;;;;5125182;27;20451;-56
2022/08/03 14:31:52;;;;;;;;;;;33.50;35.70;;;;;;5104697;27;19916;-56
2022/08/03 14:34:32;;;;;;;;;;;33.70;31.30;;;;;;5124626;27;19911;-56
2022/08/03 14:37:12;;;;;;;;;;;33.90;31.00;;;;;;5115181;27;19926;-56
2022/08/03 14:39:51;;;;;;;;;;;33.90;30.90;;;;;;5125727;27;19915;-56
2022/08/03 14:42:31;;;;;;;;;;;33.50;30.80;;;;;;5085909;28;19926;-55
2022/08/03 14:45:11;;;;;;;;;;;33.10;31.90;;;;;;5104956;27;19926;-56
2022/08/03 14:47:51;;;;;;;;;;;32.80;33.70;;;;;;5124466;27;19918;-57
2022/08/03 14:50:31;;;;;;;;;;;32.50;32.40;;;;;;5125006;27;19912;-57
2022/08/03 14:53:10;;;;;;;;;;;32.30;31.90;;;;;;5105280;27;19945;-58
2022/08/03 14:55:52;;;;;;;;;;;32.70;31.40;;;;;;5124920;27;19916;-57
2022/08/03 14:58:32;;;;;;;;;;;33.30;31.00;;;;;;5145731;27;19922;-56
2022/08/03 15:01:12;;;;;;;;;;;33.90;31.10;;;;;;5125942;27;19918;-57
2022/08/03 15:03:51;;;;;;;;;;;34.40;29.90;;;;;;5126014;27;19911;-56
2022/08/03 15:06:31;;;;;;;;;;;34.70;33.30;;;;;;5120846;27;19916;-57
2022/08/03 15:09:11;;;;;;;;;;;35.00;30.50;;;;;;5104945;27;20262;-57
2022/08/03 15:11:51;;;;;;;;;;;35.00;30.00;;;;;;5104944;27;19930;-57
2022/08/03 15:14:31;;;;;;;;;;;35.10;29.80;;;;;;5123796;27;19918;-57
2022/08/03 15:17:12;;;;;;;;;;;34.90;29.50;;;;;;5113309;27;19918;-56
2022/08/03 15:19:52;;;;;;;;;;;35.00;30.30;;;;;;5124922;27;20436;-57
2022/08/03 15:22:33;;;;;;;;;;;35.00;29.20;;;;;;5124575;27;19912;-57
2022/08/03 15:25:13;;;;;;;;;;;35.00;29.60;;;;;;5104797;27;19912;-57
2022/08/03 15:27:53;;;;;;;;;;;35.30;29.90;;;;;;5163422;22;19924;-55
2022/08/03 15:30:35;;;;;;;;;;;35.40;31.20;;;;;;5126068;27;19918;-55
2022/08/03 15:33:17;;;;;;;;;;;35.40;30.00;;;;;;5126206;27;19918;-57
2022/08/03 15:35:58;;;;;;;;;;;35.20;29.90;;;;;;5125151;27;20442;-58
2022/08/03 15:38:39;;;;;;;;;;;35.20;30.40;;;;;;5112038;27;19916;-56
2022/08/03 15:41:19;;;;;;;;;;;35.20;30.00;;;;;;5104864;27;19912;-56
2022/08/03 15:43:58;;;;;;;;;;;35.20;30.80;;;;;;5125549;27;20316;-58
2022/08/03 15:46:38;;;;;;;;;;;35.50;29.10;;;;;;5124639;27;19938;-56